This is the latest recevied weather packets stored in our database for station/object NY5V. If no packets are shown the sender has not sent any weather packets the latest 1 day(s).
| Time | Temp. | Humidity | Pressure | Rain* | Wind** | Luminosity | Snow |
|---|---|---|---|---|---|---|---|
| 1777969134 | 20° C | 90% | 1007.1 hPa | 0 mm | 3.58 m/s, 287° | 0 W/m² | - |
| 1777968533 | 20° C | 90% | 1007.2 hPa | 0 mm | 0.89 m/s, 49° | 0 W/m² | - |
| 1777967931 | 20° C | 90% | 1007.2 hPa | 0 mm | 0.45 m/s, 49° | 0 W/m² | - |
| 1777967325 | 20° C | 90% | 1007.4 hPa | 0 mm | 1.79 m/s, 181° | 0 W/m² | - |
| 1777966725 | 20° C | 90% | 1007.6 hPa | 0 mm | 0.45 m/s, 17° | 0 W/m² | - |
| 1777966126 | 20° C | 89% | 1007.6 hPa | 0 mm | 0.89 m/s, 40° | 0 W/m² | - |
| 1777965524 | 20° C | 89% | 1007.7 hPa | 0 mm | 1.79 m/s, 339° | 0 W/m² | - |
| 1777964919 | 20° C | 88% | 1008 hPa | 0 mm | 0.45 m/s, 352° | 0 W/m² | - |
| 1777964316 | 20° C | 88% | 1007.8 hPa | 0 mm | 1.79 m/s, 246° | 0 W/m² | - |
| 1777963716 | 20° C | 88% | 1008 hPa | 0 mm | 0.45 m/s, 45° | 0 W/m² | - |
| 1777963111 | 20° C | 87% | 1008.1 hPa | 0 mm | 0.89 m/s, 27° | 0 W/m² | - |
| 1777962509 | 20° C | 87% | 1008.2 hPa | 0 mm | 1.34 m/s, 25° | 0 W/m² | - |
| 1777961909 | 20.56° C | 86% | 1008.2 hPa | 0 mm | 0 m/s | 0 W/m² | - |
| 1777961305 | 20.56° C | 86% | 1008.4 hPa | 0 mm | 1.34 m/s, 32° | 0 W/m² | - |
| 1777960703 | 20.56° C | 86% | 1008.3 hPa | 0 mm | 0.89 m/s, 47° | 0 W/m² | - |
| 1777960103 | 20.56° C | 85% | 1008.3 hPa | 0 mm | 0.89 m/s, 47° | 0 W/m² | - |
| 1777959498 | 20.56° C | 84% | 1008.5 hPa | 0 mm | 0.45 m/s, 32° | 0 W/m² | - |
| 1777958897 | 20.56° C | 84% | 1008.6 hPa | 0 mm | 0.45 m/s, 43° | 0 W/m² | - |
| 1777958296 | 21.11° C | 83% | 1008.3 hPa | 0 mm | 1.34 m/s, 21° | 0 W/m² | - |
| 1777957692 | 21.11° C | 83% | 1008.7 hPa | 0 mm | 0.45 m/s, 40° | 0 W/m² | - |
| 1777957091 | 21.11° C | 82% | 1008.8 hPa | 0 mm | 0.89 m/s, 12° | 0 W/m² | - |
* Rain latest hour (hover to see other rain measurements)
** Current wind speed in m/s (hover to see current wind gust speed)